sensor_id;sensor_type;location;lat;lon;timestamp;pressure;altitude;pressure_sealevel;temperature;humidity
75886;BME280;64561;44.018;10.144;2023-08-06T00:00:41;100610.19;;;19.97;76.14
75886;BME280;64561;44.018;10.144;2023-08-06T00:03:09;100610.19;;;19.99;76.51
75886;BME280;64561;44.018;10.144;2023-08-06T00:05:36;100610.19;;;19.97;76.04
75886;BME280;64561;44.018;10.144;2023-08-06T00:08:03;100621.72;;;19.82;76.19
75886;BME280;64561;44.018;10.144;2023-08-06T00:10:31;100625.25;;;19.78;76.13
75886;BME280;64561;44.018;10.144;2023-08-06T00:12:58;100626.94;;;19.81;76.30
75886;BME280;64561;44.018;10.144;2023-08-06T00:15:25;100626.91;;;19.82;76.69
75886;BME280;64561;44.018;10.144;2023-08-06T00:17:52;100633.78;;;19.85;76.52
75886;BME280;64561;44.018;10.144;2023-08-06T00:20:19;100625.25;;;19.80;75.77
75886;BME280;64561;44.018;10.144;2023-08-06T00:22:47;100629.56;;;19.79;76.00
75886;BME280;64561;44.018;10.144;2023-08-06T00:25:14;100630.59;;;19.71;75.40
75886;BME280;64561;44.018;10.144;2023-08-06T00:27:41;100628.75;;;19.76;75.57
75886;BME280;64561;44.018;10.144;2023-08-06T00:30:09;100627.06;;;19.75;75.15
75886;BME280;64561;44.018;10.144;2023-08-06T00:32:36;100630.50;;;19.77;74.94
75886;BME280;64561;44.018;10.144;2023-08-06T00:35:03;100630.44;;;19.78;75.37
75886;BME280;64561;44.018;10.144;2023-08-06T00:37:31;100620.91;;;19.80;75.61
75886;BME280;64561;44.018;10.144;2023-08-06T00:39:59;100632.09;;;19.82;75.36
75886;BME280;64561;44.018;10.144;2023-08-06T00:42:26;100630.56;;;19.72;74.51
75886;BME280;64561;44.018;10.144;2023-08-06T00:44:53;100636.53;;;19.76;74.76
75886;BME280;64561;44.018;10.144;2023-08-06T00:47:20;100628.81;;;19.73;75.24
75886;BME280;64561;44.018;10.144;2023-08-06T00:49:47;100625.31;;;19.77;75.44
75886;BME280;64561;44.018;10.144;2023-08-06T00:52:14;100609.78;;;19.74;74.36
75886;BME280;64561;44.018;10.144;2023-08-06T00:54:41;100613.22;;;19.73;74.08
75886;BME280;64561;44.018;10.144;2023-08-06T00:57:09;100604.66;;;19.69;73.52
75886;BME280;64561;44.018;10.144;2023-08-06T00:59:37;100595.28;;;19.57;73.31
75886;BME280;64561;44.018;10.144;2023-08-06T01:02:04;100599.59;;;19.58;73.48
75886;BME280;64561;44.018;10.144;2023-08-06T01:04:32;100594.44;;;19.55;73.39
75886;BME280;64561;44.018;10.144;2023-08-06T01:10:17;100596.78;;;19.18;75.36
75886;BME280;64561;44.018;10.144;2023-08-06T01:13:08;100603.81;;;19.10;76.31
75886;BME280;64561;44.018;10.144;2023-08-06T01:15:42;100598.69;;;19.08;76.91
75886;BME280;64561;44.018;10.144;2023-08-06T01:18:10;100602.06;;;19.13;77.15
75886;BME280;64561;44.018;10.144;2023-08-06T01:20:38;100607.16;;;19.19;77.18
75886;BME280;64561;44.018;10.144;2023-08-06T01:23:05;100609.72;;;19.23;77.39
75886;BME280;64561;44.018;10.144;2023-08-06T01:25:56;100613.91;;;19.28;77.65
75886;BME280;64561;44.018;10.144;2023-08-06T01:31:07;100586.16;;;19.35;80.17
75886;BME280;64561;44.018;10.144;2023-08-06T01:33:40;100594.56;;;19.49;79.83
75886;BME280;64561;44.018;10.144;2023-08-06T01:36:12;100603.03;;;19.60;79.48
75886;BME280;64561;44.018;10.144;2023-08-06T01:38:39;100593.41;;;19.67;79.10
75886;BME280;64561;44.018;10.144;2023-08-06T01:41:06;100589.97;;;19.67;78.98
75886;BME280;64561;44.018;10.144;2023-08-06T01:43:33;100583.06;;;19.66;78.98
75886;BME280;64561;44.018;10.144;2023-08-06T01:46:00;100583.81;;;19.74;79.31
75886;BME280;64561;44.018;10.144;2023-08-06T01:48:28;100581.94;;;19.80;79.40
75886;BME280;64561;44.018;10.144;2023-08-06T01:50:55;100585.41;;;19.81;79.36
75886;BME280;64561;44.018;10.144;2023-08-06T01:53:22;100590.81;;;19.69;79.36
75886;BME280;64561;44.018;10.144;2023-08-06T01:55:51;100595.16;;;19.68;79.77
75886;BME280;64561;44.018;10.144;2023-08-06T01:58:19;100592.44;;;19.74;79.71
75886;BME280;64561;44.018;10.144;2023-08-06T02:00:46;100577.78;;;19.72;79.77
75886;BME280;64561;44.018;10.144;2023-08-06T02:03:13;100586.34;;;19.77;79.87
75886;BME280;64561;44.018;10.144;2023-08-06T02:05:40;100597.72;;;19.70;79.98
75886;BME280;64561;44.018;10.144;2023-08-06T02:08:08;100595.16;;;19.68;80.71
75886;BME280;64561;44.018;10.144;2023-08-06T02:10:35;100596.94;;;19.64;80.66
75886;BME280;64561;44.018;10.144;2023-08-06T02:13:02;100595.28;;;19.57;81.00
75886;BME280;64561;44.018;10.144;2023-08-06T02:15:29;100593.50;;;19.61;81.27
75886;BME280;64561;44.018;10.144;2023-08-06T02:17:56;100593.59;;;19.56;81.22
75886;BME280;64561;44.018;10.144;2023-08-06T02:20:43;100590.03;;;19.60;81.13
75886;BME280;64561;44.018;10.144;2023-08-06T02:23:11;100588.31;;;19.61;80.93
75886;BME280;64561;44.018;10.144;2023-08-06T02:25:38;100588.28;;;19.66;80.92
75886;BME280;64561;44.018;10.144;2023-08-06T02:28:05;100586.56;;;19.64;81.11
75886;BME280;64561;44.018;10.144;2023-08-06T02:30:32;100588.50;;;19.49;81.47
75886;BME280;64561;44.018;10.144;2023-08-06T02:32:59;100590.31;;;19.47;81.88
75886;BME280;64561;44.018;10.144;2023-08-06T02:35:27;100592.25;;;19.32;82.72
75886;BME280;64561;44.018;10.144;2023-08-06T02:37:54;100583.56;;;19.33;82.63
75886;BME280;64561;44.018;10.144;2023-08-06T02:40:22;100582.63;;;19.39;82.37
75886;BME280;64561;44.018;10.144;2023-08-06T02:42:49;100586.78;;;19.49;82.20
75886;BME280;64561;44.018;10.144;2023-08-06T02:45:16;100575.47;;;19.53;82.05
75886;BME280;64561;44.018;10.144;2023-08-06T02:47:44;100582.69;;;19.36;82.42
75886;BME280;64561;44.018;10.144;2023-08-06T02:50:11;100582.28;;;19.06;83.50
75886;BME280;64561;44.018;10.144;2023-08-06T02:52:38;100579.53;;;19.15;83.08
75886;BME280;64561;44.018;10.144;2023-08-06T02:55:07;100571.53;;;19.29;82.63
75886;BME280;64561;44.018;10.144;2023-08-06T02:57:40;100571.44;;;19.35;81.63
75886;BME280;64561;44.018;10.144;2023-08-06T03:00:07;100573.16;;;19.36;81.40
75886;BME280;64561;44.018;10.144;2023-08-06T03:02:35;100567.78;;;19.47;81.30
75886;BME280;64561;44.018;10.144;2023-08-06T03:05:22;100571.09;;;19.55;80.85
75886;BME280;64561;44.018;10.144;2023-08-06T03:07:49;100564.28;;;19.50;80.19
75886;BME280;64561;44.018;10.144;2023-08-06T03:10:23;100567.75;;;19.49;80.35
75886;BME280;64561;44.018;10.144;2023-08-06T03:12:53;100569.44;;;19.51;80.37
75886;BME280;64561;44.018;10.144;2023-08-06T03:15:22;100571.09;;;19.55;80.34
75886;BME280;64561;44.018;10.144;2023-08-06T03:17:50;100580.56;;;19.58;80.42
75886;BME280;64561;44.018;10.144;2023-08-06T03:20:20;100572.66;;;19.64;80.70
75886;BME280;64561;44.018;10.144;2023-08-06T03:22:47;100566.56;;;19.70;80.67
75886;BME280;64561;44.018;10.144;2023-08-06T03:25:14;100559.53;;;19.75;80.80
75886;BME280;64561;44.018;10.144;2023-08-06T03:27:46;100561.94;;;19.85;80.58
75886;BME280;64561;44.018;10.144;2023-08-06T03:30:16;100558.31;;;19.94;80.49
75886;BME280;64561;44.018;10.144;2023-08-06T03:32:43;100550.38;;;20.02;79.91
75886;BME280;64561;44.018;10.144;2023-08-06T03:35:11;100553.66;;;20.12;80.35
75886;BME280;64561;44.018;10.144;2023-08-06T03:37:38;100550.00;;;20.20;79.55
75886;BME280;64561;44.018;10.144;2023-08-06T03:40:06;100550.72;;;20.27;79.01
75886;BME280;64561;44.018;10.144;2023-08-06T03:42:34;100556.69;;;20.32;78.97
75886;BME280;64561;44.018;10.144;2023-08-06T03:45:02;100556.63;;;20.35;79.05
75886;BME280;64561;44.018;10.144;2023-08-06T03:47:31;100540.97;;;20.38;78.76
75886;BME280;64561;44.018;10.144;2023-08-06T03:49:58;100548.63;;;20.44;78.89
75886;BME280;64561;44.018;10.144;2023-08-06T03:52:25;100542.53;;;20.45;78.83
75886;BME280;64561;44.018;10.144;2023-08-06T03:54:52;100540.75;;;20.49;78.80
75886;BME280;64561;44.018;10.144;2023-08-06T03:57:20;100538.97;;;20.51;78.81
75886;BME280;64561;44.018;10.144;2023-08-06T03:59:47;100538.06;;;20.53;79.00
75886;BME280;64561;44.018;10.144;2023-08-06T04:02:23;100537.19;;;20.54;78.68
75886;BME280;64561;44.018;10.144;2023-08-06T04:04:50;100540.59;;;20.57;78.31
75886;BME280;64561;44.018;10.144;2023-08-06T04:07:20;100541.44;;;20.59;78.43
75886;BME280;64561;44.018;10.144;2023-08-06T04:09:56;100543.06;;;20.63;78.35
75886;BME280;64561;44.018;10.144;2023-08-06T04:12:25;100543.06;;;20.64;79.35
75886;BME280;64561;44.018;10.144;2023-08-06T04:14:53;100547.34;;;20.65;79.51
75886;BME280;64561;44.018;10.144;2023-08-06T04:17:21;100545.66;;;20.64;79.53
75886;BME280;64561;44.018;10.144;2023-08-06T04:19:50;100546.53;;;20.63;79.44
75886;BME280;64561;44.018;10.144;2023-08-06T04:22:18;100538.72;;;20.63;79.63
75886;BME280;64561;44.018;10.144;2023-08-06T04:24:46;100534.44;;;20.61;79.46
75886;BME280;64561;44.018;10.144;2023-08-06T04:27:14;100537.91;;;20.61;79.71
75886;BME280;64561;44.018;10.144;2023-08-06T04:29:43;100544.84;;;20.61;79.83
75886;BME280;64561;44.018;10.144;2023-08-06T04:32:12;100540.66;;;20.55;79.16
75886;BME280;64561;44.018;10.144;2023-08-06T04:34:44;100532.88;;;20.53;79.46
75886;BME280;64561;44.018;10.144;2023-08-06T04:37:11;100540.66;;;20.55;79.97
75886;BME280;64561;44.018;10.144;2023-08-06T04:39:38;100544.06;;;20.57;80.71
75886;BME280;64561;44.018;10.144;2023-08-06T04:42:06;100546.56;;;20.62;81.01
75886;BME280;64561;44.018;10.144;2023-08-06T04:44:34;100550.91;;;20.61;81.06
75886;BME280;64561;44.018;10.144;2023-08-06T04:47:01;100542.22;;;20.62;80.71
75886;BME280;64561;44.018;10.144;2023-08-06T04:49:28;100537.03;;;20.61;80.18
75886;BME280;64561;44.018;10.144;2023-08-06T04:51:55;100548.31;;;20.61;79.88
75886;BME280;64561;44.018;10.144;2023-08-06T04:54:22;100537.16;;;20.56;80.38
75886;BME280;64561;44.018;10.144;2023-08-06T04:56:49;100546.72;;;20.55;79.94
75886;BME280;64561;44.018;10.144;2023-08-06T04:59:16;100552.69;;;20.59;80.14
75886;BME280;64561;44.018;10.144;2023-08-06T05:01:43;100557.91;;;20.58;79.95
75886;BME280;64561;44.018;10.144;2023-08-06T05:04:10;100561.34;;;20.60;80.63
75886;BME280;64561;44.018;10.144;2023-08-06T05:06:37;100561.47;;;20.55;81.48
75886;BME280;64561;44.018;10.144;2023-08-06T05:09:05;100552.94;;;20.47;81.34
75886;BME280;64561;44.018;10.144;2023-08-06T05:11:33;100558.91;;;20.50;81.71
75886;BME280;64561;44.018;10.144;2023-08-06T05:14:00;100548.56;;;20.49;82.35
75886;BME280;64561;44.018;10.144;2023-08-06T05:16:27;100558.84;;;20.55;82.19
75886;BME280;64561;44.018;10.144;2023-08-06T05:18:55;100568.34;;;20.56;82.22
75886;BME280;64561;44.018;10.144;2023-08-06T05:21:22;100563.09;;;20.58;82.33
75886;BME280;64561;44.018;10.144;2023-08-06T05:23:52;100567.38;;;20.60;82.00
75886;BME280;64561;44.018;10.144;2023-08-06T05:26:19;100570.03;;;20.59;82.22
75886;BME280;64561;44.018;10.144;2023-08-06T05:28:46;100568.25;;;20.61;81.98
75886;BME280;64561;44.018;10.144;2023-08-06T05:31:13;100563.03;;;20.62;82.15
75886;BME280;64561;44.018;10.144;2023-08-06T05:33:41;100564.72;;;20.65;82.30
75886;BME280;64561;44.018;10.144;2023-08-06T05:36:08;100557.69;;;20.67;82.34
75886;BME280;64561;44.018;10.144;2023-08-06T05:38:35;100561.97;;;20.71;82.16
75886;BME280;64561;44.018;10.144;2023-08-06T05:41:02;100561.00;;;20.75;82.04
75886;BME280;64561;44.018;10.144;2023-08-06T05:43:29;100565.22;;;20.81;82.25
75886;BME280;64561;44.018;10.144;2023-08-06T05:45:56;100565.97;;;20.86;82.06
75886;BME280;64561;44.018;10.144;2023-08-06T05:48:24;100556.28;;;20.91;81.91
75886;BME280;64561;44.018;10.144;2023-08-06T05:50:52;100562.22;;;20.97;81.49
75886;BME280;64561;44.018;10.144;2023-08-06T05:53:19;100567.28;;;21.04;80.96
75886;BME280;64561;44.018;10.144;2023-08-06T05:55:47;100547.50;;;20.96;80.85
75886;BME280;64561;44.018;10.144;2023-08-06T05:58:14;100554.06;;;21.13;80.14
75886;BME280;64561;44.018;10.144;2023-08-06T06:00:41;100559.22;;;21.14;80.21
75886;BME280;64561;44.018;10.144;2023-08-06T06:03:09;100560.06;;;21.15;80.92
75886;BME280;64561;44.018;10.144;2023-08-06T06:05:39;100580.88;;;21.15;81.29
75886;BME280;64561;44.018;10.144;2023-08-06T06:08:06;100578.34;;;21.13;81.00
75886;BME280;64561;44.018;10.144;2023-08-06T06:10:33;100576.56;;;21.14;81.09
75886;BME280;64561;44.018;10.144;2023-08-06T06:13:00;100582.63;;;21.16;80.76
75886;BME280;64561;44.018;10.144;2023-08-06T06:15:27;100579.97;;;21.17;80.55
75886;BME280;64561;44.018;10.144;2023-08-06T06:17:54;100583.41;;;21.18;80.42
75886;BME280;64561;44.018;10.144;2023-08-06T06:20:21;100590.28;;;21.22;81.00
75886;BME280;64561;44.018;10.144;2023-08-06T06:22:49;100590.28;;;21.22;81.74
75886;BME280;64561;44.018;10.144;2023-08-06T06:25:16;100589.38;;;21.23;81.88
75886;BME280;64561;44.018;10.144;2023-08-06T06:27:43;100590.28;;;21.22;81.65
75886;BME280;64561;44.018;10.144;2023-08-06T06:30:10;100604.06;;;21.26;81.33
75886;BME280;64561;44.018;10.144;2023-08-06T06:32:39;100594.50;;;21.26;80.81
75886;BME280;64561;44.018;10.144;2023-08-06T06:35:08;100594.34;;;21.32;80.21
75886;BME280;64561;44.018;10.144;2023-08-06T06:37:35;100591.69;;;21.37;79.57
75886;BME280;64561;44.018;10.144;2023-08-06T06:40:02;100589.81;;;21.42;79.63
75886;BME280;64561;44.018;10.144;2023-08-06T06:42:30;100595.75;;;21.49;79.18
75886;BME280;64561;44.018;10.144;2023-08-06T06:45:00;100593.00;;;21.53;78.81
75886;BME280;64561;44.018;10.144;2023-08-06T06:47:30;100606.63;;;21.64;77.17
75886;BME280;64561;44.018;10.144;2023-08-06T06:49:57;100603.88;;;21.69;75.12
75886;BME280;64561;44.018;10.144;2023-08-06T06:52:24;100612.41;;;21.76;74.39
75886;BME280;64561;44.018;10.144;2023-08-06T06:54:51;100599.16;;;21.83;74.33
75886;BME280;64561;44.018;10.144;2023-08-06T06:57:19;100587.81;;;21.86;73.73
75886;BME280;64561;44.018;10.144;2023-08-06T06:59:46;100591.94;;;21.93;72.41
75886;BME280;64561;44.018;10.144;2023-08-06T07:02:17;100585.78;;;21.97;71.89
75886;BME280;64561;44.018;10.144;2023-08-06T07:04:44;100585.72;;;21.99;71.74
75886;BME280;64561;44.018;10.144;2023-08-06T07:07:11;100585.56;;;22.05;71.19
75886;BME280;64561;44.018;10.144;2023-08-06T07:09:38;100592.34;;;22.10;70.77
75886;BME280;64561;44.018;10.144;2023-08-06T07:12:06;100588.66;;;22.21;69.69
75886;BME280;64561;44.018;10.144;2023-08-06T07:14:33;100573.63;;;22.29;69.89
75886;BME280;64561;44.018;10.144;2023-08-06T07:17:03;100576.19;;;22.30;69.17
75886;BME280;64561;44.018;10.144;2023-08-06T07:19:30;100579.63;;;22.32;69.69
75886;BME280;64561;44.018;10.144;2023-08-06T07:21:58;100570.81;;;22.36;69.64
75886;BME280;64561;44.018;10.144;2023-08-06T07:24:25;100571.66;;;22.37;69.29
75886;BME280;64561;44.018;10.144;2023-08-06T07:26:52;100562.06;;;22.37;68.99
75886;BME280;64561;44.018;10.144;2023-08-06T07:29:19;100564.59;;;22.41;69.01
75886;BME280;64561;44.018;10.144;2023-08-06T07:31:48;100569.78;;;22.42;69.38
75886;BME280;64561;44.018;10.144;2023-08-06T07:34:17;100569.50;;;22.51;69.40
75886;BME280;64561;44.018;10.144;2023-08-06T07:36:45;100572.75;;;22.59;69.67
75886;BME280;64561;44.018;10.144;2023-08-06T07:39:13;100579.47;;;22.67;69.00
75886;BME280;64561;44.018;10.144;2023-08-06T07:41:40;100570.00;;;22.64;68.98
75886;BME280;64561;44.018;10.144;2023-08-06T07:44:08;100574.09;;;22.71;69.34
75886;BME280;64561;44.018;10.144;2023-08-06T07:46:35;100582.56;;;22.79;66.44
75886;BME280;64561;44.018;10.144;2023-08-06T07:49:02;100578.16;;;22.81;67.19
75886;BME280;64561;44.018;10.144;2023-08-06T07:51:30;100571.91;;;22.87;67.41
75886;BME280;64561;44.018;10.144;2023-08-06T07:53:59;100569.94;;;22.94;67.73
75886;BME280;64561;44.018;10.144;2023-08-06T07:56:26;100564.69;;;22.95;66.93
75886;BME280;64561;44.018;10.144;2023-08-06T07:58:55;100568.00;;;23.02;66.64
75886;BME280;64561;44.018;10.144;2023-08-06T08:01:22;100566.13;;;23.05;66.59
75886;BME280;64561;44.018;10.144;2023-08-06T08:03:50;100571.06;;;23.15;67.50
75886;BME280;64561;44.018;10.144;2023-08-06T08:06:17;100565.53;;;23.24;66.37
75886;BME280;64561;44.018;10.144;2023-08-06T08:08:44;100561.06;;;23.27;66.17
75886;BME280;64561;44.018;10.144;2023-08-06T08:11:11;100552.81;;;23.40;66.19
75886;BME280;64561;44.018;10.144;2023-08-06T08:13:38;100555.22;;;23.46;63.95
75886;BME280;64561;44.018;10.144;2023-08-06T08:16:05;100546.53;;;23.45;64.10
75886;BME280;64561;44.018;10.144;2023-08-06T08:18:34;100549.78;;;23.52;63.87
75886;BME280;64561;44.018;10.144;2023-08-06T08:21:01;100540.72;;;23.62;64.75
75886;BME280;64561;44.018;10.144;2023-08-06T08:23:28;100535.28;;;23.68;62.77
75886;BME280;64561;44.018;10.144;2023-08-06T08:25:55;100535.78;;;23.80;61.70
75886;BME280;64561;44.018;10.144;2023-08-06T08:28:23;100533.16;;;23.80;61.10
75886;BME280;64561;44.018;10.144;2023-08-06T08:30:50;100549.72;;;23.80;60.92
75886;BME280;64561;44.018;10.144;2023-08-06T08:33:17;100542.63;;;23.84;60.36
75886;BME280;64561;44.018;10.144;2023-08-06T08:35:45;100557.22;;;23.89;60.06
75886;BME280;64561;44.018;10.144;2023-08-06T08:38:13;100554.72;;;23.86;59.72
75886;BME280;64561;44.018;10.144;2023-08-06T08:40:46;100541.59;;;23.88;59.72
75886;BME280;64561;44.018;10.144;2023-08-06T08:43:17;100524.69;;;23.98;60.86
75886;BME280;64561;44.018;10.144;2023-08-06T08:45:50;100525.31;;;24.05;61.05
75886;BME280;64561;44.018;10.144;2023-08-06T08:48:19;100520.78;;;24.10;60.29
75886;BME280;64561;44.018;10.144;2023-08-06T08:50:48;100533.66;;;24.14;62.54
75886;BME280;64561;44.018;10.144;2023-08-06T08:53:16;100537.69;;;24.23;62.51
75886;BME280;64561;44.018;10.144;2023-08-06T08:55:47;100533.19;;;24.27;62.89
75886;BME280;64561;44.018;10.144;2023-08-06T08:58:15;100526.16;;;24.29;62.19
75886;BME280;64561;44.018;10.144;2023-08-06T09:00:42;100529.66;;;24.28;61.29
75886;BME280;64561;44.018;10.144;2023-08-06T09:03:11;100527.84;;;24.30;59.49
75886;BME280;64561;44.018;10.144;2023-08-06T09:05:44;100532.00;;;24.35;61.00
75886;BME280;64561;44.018;10.144;2023-08-06T09:08:15;100529.16;;;24.41;61.14
75886;BME280;64561;44.018;10.144;2023-08-06T09:10:44;100530.03;;;24.42;58.96
75886;BME280;64561;44.018;10.144;2023-08-06T09:13:14;100518.66;;;24.43;59.66
75886;BME280;64561;44.018;10.144;2023-08-06T09:15:41;100533.50;;;24.42;60.56
75886;BME280;64561;44.018;10.144;2023-08-06T09:18:12;100533.44;;;24.44;60.56
75886;BME280;64561;44.018;10.144;2023-08-06T09:20:39;100535.03;;;24.48;60.18
75886;BME280;64561;44.018;10.144;2023-08-06T09:23:10;100540.31;;;24.47;60.93
75886;BME280;64561;44.018;10.144;2023-08-06T09:25:40;100544.41;;;24.54;58.65
75886;BME280;64561;44.018;10.144;2023-08-06T09:28:07;100542.38;;;24.60;60.37
75886;BME280;64561;44.018;10.144;2023-08-06T09:30:36;100541.31;;;24.66;59.85
75886;BME280;64561;44.018;10.144;2023-08-06T09:33:08;100546.63;;;24.64;60.61
75886;BME280;64561;44.018;10.144;2023-08-06T09:35:39;100533.28;;;24.71;59.35
75886;BME280;64561;44.018;10.144;2023-08-06T09:38:08;100541.91;;;24.73;60.09
75886;BME280;64561;44.018;10.144;2023-08-06T09:40:37;100536.50;;;24.77;60.10
75886;BME280;64561;44.018;10.144;2023-08-06T09:43:05;100537.22;;;24.81;60.05
75886;BME280;64561;44.018;10.144;2023-08-06T09:45:33;100532.00;;;24.81;59.01
75886;BME280;64561;44.018;10.144;2023-08-06T09:48:04;100534.50;;;24.84;59.36
75886;BME280;64561;44.018;10.144;2023-08-06T09:50:34;100528.03;;;24.93;59.37
75886;BME280;64561;44.018;10.144;2023-08-06T09:53:06;100523.53;;;24.96;59.49
75886;BME280;64561;44.018;10.144;2023-08-06T09:55:35;100527.06;;;24.95;58.41
75886;BME280;64561;44.018;10.144;2023-08-06T09:58:02;100523.47;;;24.98;57.99
75886;BME280;64561;44.018;10.144;2023-08-06T10:00:30;100516.59;;;24.95;58.54
75886;BME280;64561;44.018;10.144;2023-08-06T10:03:03;100529.31;;;25.04;58.52
75886;BME280;64561;44.018;10.144;2023-08-06T10:05:31;100523.94;;;25.07;57.14
75886;BME280;64561;44.018;10.144;2023-08-06T10:07:59;100518.88;;;25.03;57.38
75886;BME280;64561;44.018;10.144;2023-08-06T10:10:28;100531.94;;;25.04;57.74
75886;BME280;64561;44.018;10.144;2023-08-06T10:12:58;100538.59;;;25.12;59.11
75886;BME280;64561;44.018;10.144;2023-08-06T10:15:28;100542.84;;;25.16;60.21
75886;BME280;64561;44.018;10.144;2023-08-06T10:17:58;100528.78;;;25.18;59.11
75886;BME280;64561;44.018;10.144;2023-08-06T10:20:26;100538.75;;;25.30;60.03
75886;BME280;64561;44.018;10.144;2023-08-06T10:23:01;100538.53;;;25.35;59.82
75886;BME280;64561;44.018;10.144;2023-08-06T10:25:39;100537.25;;;25.45;62.30
75886;BME280;64561;44.018;10.144;2023-08-06T10:28:08;100534.09;;;25.58;61.76
75886;BME280;64561;44.018;10.144;2023-08-06T10:30:44;100536.31;;;25.67;62.24
75886;BME280;64561;44.018;10.144;2023-08-06T10:33:11;100539.56;;;25.72;63.34
75886;BME280;64561;44.018;10.144;2023-08-06T10:35:48;100549.59;;;25.62;62.92
75886;BME280;64561;44.018;10.144;2023-08-06T10:38:21;100548.94;;;25.57;64.62
75886;BME280;64561;44.018;10.144;2023-08-06T10:43:32;100544.31;;;25.64;66.06
75886;BME280;64561;44.018;10.144;2023-08-06T10:46:01;100546.94;;;25.64;65.22
75886;BME280;64561;44.018;10.144;2023-08-06T10:51:08;100542.41;;;25.67;65.69
75886;BME280;64561;44.018;10.144;2023-08-06T10:53:37;100546.41;;;25.76;66.13
75886;BME280;64561;44.018;10.144;2023-08-06T10:56:13;100538.44;;;25.77;66.48
75886;BME280;64561;44.018;10.144;2023-08-06T10:58:42;100534.69;;;25.85;65.06
75886;BME280;64561;44.018;10.144;2023-08-06T11:01:10;100546.75;;;25.89;65.51
75886;BME280;64561;44.018;10.144;2023-08-06T11:03:40;100539.56;;;25.92;65.85
75886;BME280;64561;44.018;10.144;2023-08-06T11:06:08;100544.97;;;25.89;65.54
75886;BME280;64561;44.018;10.144;2023-08-06T11:08:37;100541.34;;;25.92;65.29
75886;BME280;64561;44.018;10.144;2023-08-06T11:11:13;100543.00;;;25.94;66.22
75886;BME280;64561;44.018;10.144;2023-08-06T11:13:42;100529.03;;;25.94;66.27
75886;BME280;64561;44.018;10.144;2023-08-06T11:16:09;100534.63;;;26.05;65.80
75886;BME280;64561;44.018;10.144;2023-08-06T11:18:37;100533.59;;;26.09;67.14
75886;BME280;64561;44.018;10.144;2023-08-06T11:21:04;100531.94;;;26.07;65.66
75886;BME280;64561;44.018;10.144;2023-08-06T11:23:32;100533.78;;;26.05;66.52
75886;BME280;64561;44.018;10.144;2023-08-06T11:26:03;100534.44;;;26.10;66.07
75886;BME280;64561;44.018;10.144;2023-08-06T11:28:30;100532.38;;;26.16;66.13
75886;BME280;64561;44.018;10.144;2023-08-06T11:30:58;100536.78;;;26.16;67.09
75886;BME280;64561;44.018;10.144;2023-08-06T11:33:28;100534.94;;;26.18;66.71
75886;BME280;64561;44.018;10.144;2023-08-06T11:35:56;100536.81;;;26.14;65.70
75886;BME280;64561;44.018;10.144;2023-08-06T11:38:26;100535.97;;;26.14;66.98
75886;BME280;64561;44.018;10.144;2023-08-06T11:40:54;100534.34;;;26.11;67.30
75886;BME280;64561;44.018;10.144;2023-08-06T11:43:21;100544.66;;;26.16;67.31
75886;BME280;64561;44.018;10.144;2023-08-06T11:45:50;100535.00;;;26.16;66.37
75886;BME280;64561;44.018;10.144;2023-08-06T11:48:18;100537.75;;;26.13;66.91
75886;BME280;64561;44.018;10.144;2023-08-06T11:50:46;100539.72;;;26.08;65.11
75886;BME280;64561;44.018;10.144;2023-08-06T11:53:14;100536.22;;;26.09;65.37
75886;BME280;64561;44.018;10.144;2023-08-06T11:55:42;100537.25;;;26.05;67.25
75886;BME280;64561;44.018;10.144;2023-08-06T11:58:10;100531.66;;;26.13;66.29
75886;BME280;64561;44.018;10.144;2023-08-06T12:00:38;100543.44;;;26.23;65.28
75886;BME280;64561;44.018;10.144;2023-08-06T12:03:06;100543.53;;;26.21;64.80
75886;BME280;64561;44.018;10.144;2023-08-06T12:05:33;100551.72;;;26.14;64.08
75886;BME280;64561;44.018;10.144;2023-08-06T12:08:02;100560.81;;;26.07;65.63
75886;BME280;64561;44.018;10.144;2023-08-06T12:10:30;100553.78;;;26.07;64.91
75886;BME280;64561;44.018;10.144;2023-08-06T12:12:58;100557.38;;;26.05;66.43
75886;BME280;64561;44.018;10.144;2023-08-06T12:15:25;100567.47;;;26.14;65.95
75886;BME280;64561;44.018;10.144;2023-08-06T12:17:52;100557.63;;;26.19;64.21
75886;BME280;64561;44.018;10.144;2023-08-06T12:20:19;100564.84;;;26.14;64.99
75886;BME280;64561;44.018;10.144;2023-08-06T12:22:47;100565.34;;;26.22;64.61
75886;BME280;64561;44.018;10.144;2023-08-06T12:25:14;100572.38;;;26.21;64.92
75886;BME280;64561;44.018;10.144;2023-08-06T12:27:42;100583.81;;;26.20;63.72
75886;BME280;64561;44.018;10.144;2023-08-06T12:30:10;100573.56;;;26.14;63.88
75886;BME280;64561;44.018;10.144;2023-08-06T12:32:38;100574.28;;;26.18;63.09
75886;BME280;64561;44.018;10.144;2023-08-06T12:35:06;100568.63;;;26.27;62.92
75886;BME280;64561;44.018;10.144;2023-08-06T12:37:35;100576.50;;;26.27;61.92
75886;BME280;64561;44.018;10.144;2023-08-06T12:40:02;100576.19;;;26.14;63.18
75886;BME280;64561;44.018;10.144;2023-08-06T12:42:53;100567.19;;;26.20;63.83
75886;BME280;64561;44.018;10.144;2023-08-06T12:45:20;100570.88;;;26.35;60.83
75886;BME280;64561;44.018;10.144;2023-08-06T12:47:51;100573.22;;;26.22;61.21
75886;BME280;64561;44.018;10.144;2023-08-06T12:50:21;100575.97;;;26.19;60.36
75886;BME280;64561;44.018;10.144;2023-08-06T12:52:54;100587.03;;;26.07;61.65
75886;BME280;64561;44.018;10.144;2023-08-06T12:55:24;100579.53;;;26.18;61.58
75886;BME280;64561;44.018;10.144;2023-08-06T12:57:54;100590.16;;;26.15;61.01